createdAt,value
2017-11-24T00:00:24.877Z,66.50
2017-11-24T00:02:52.556Z,66.50
2017-11-24T00:05:20.106Z,66.50
2017-11-24T00:07:47.693Z,66.60
2017-11-24T00:10:15.224Z,66.70
2017-11-24T00:12:42.811Z,66.80
2017-11-24T00:15:10.353Z,66.90
2017-11-24T00:17:38.017Z,67.00
2017-11-24T00:20:05.576Z,67.00
2017-11-24T00:22:33.151Z,66.90
2017-11-24T00:25:00.697Z,67.10
2017-11-24T00:27:28.286Z,67.10
2017-11-24T00:29:55.832Z,67.20
2017-11-24T00:32:23.426Z,67.20
2017-11-24T00:34:51.756Z,67.30
2017-11-24T00:37:19.341Z,67.30
2017-11-24T00:39:46.891Z,67.40
2017-11-24T00:42:14.474Z,67.50
2017-11-24T00:44:42.784Z,67.50
2017-11-24T00:47:10.371Z,67.50
2017-11-24T00:49:37.904Z,67.50
2017-11-24T00:52:05.480Z,67.70
2017-11-24T00:54:33.039Z,67.80
2017-11-24T00:57:00.621Z,67.90
2017-11-24T00:59:28.165Z,67.90
2017-11-24T01:01:55.741Z,67.90
2017-11-24T01:04:23.273Z,68.00
2017-11-24T01:06:50.855Z,67.90
2017-11-24T01:09:18.399Z,67.90
2017-11-24T01:11:46.073Z,67.80
2017-11-24T01:14:13.662Z,67.70
2017-11-24T01:16:41.206Z,67.80
2017-11-24T01:19:08.805Z,67.80
2017-11-24T01:21:37.124Z,68.10
2017-11-24T01:24:04.671Z,68.10
2017-11-24T01:26:32.352Z,68.10
2017-11-24T01:28:59.903Z,68.20
2017-11-24T01:31:27.497Z,68.20
2017-11-24T01:33:55.088Z,68.20
2017-11-24T01:36:23.397Z,68.10
2017-11-24T01:38:50.980Z,68.00
2017-11-24T01:41:18.522Z,68.10
2017-11-24T01:43:46.115Z,68.20
2017-11-24T01:46:13.654Z,68.10
2017-11-24T01:48:41.232Z,68.20
2017-11-24T01:51:08.774Z,68.20
2017-11-24T01:53:36.355Z,68.30
2017-11-24T01:56:03.894Z,68.30
2017-11-24T01:58:31.475Z,68.30
2017-11-24T02:00:59.019Z,68.40
2017-11-24T02:03:26.602Z,68.40
2017-11-24T02:05:54.147Z,68.50
2017-11-24T02:08:21.791Z,68.50
2017-11-24T02:10:49.343Z,68.60
2017-11-24T02:13:16.925Z,68.60
2017-11-24T02:15:44.482Z,68.40
2017-11-24T02:18:12.061Z,68.40
2017-11-24T02:20:40.371Z,68.00
2017-11-24T02:23:07.953Z,68.00
2017-11-24T02:25:35.504Z,68.00
2017-11-24T02:28:03.095Z,67.90
2017-11-24T02:30:30.645Z,68.00
2017-11-24T02:32:58.232Z,68.00
2017-11-24T02:35:25.870Z,68.00
2017-11-24T02:37:53.450Z,68.00
2017-11-24T02:40:20.995Z,68.10
2017-11-24T02:42:48.579Z,68.00
2017-11-24T02:45:16.123Z,67.90
2017-11-24T02:47:43.753Z,67.90
2017-11-24T02:50:11.339Z,67.60
2017-11-24T02:52:38.958Z,67.70
2017-11-24T02:55:06.548Z,67.50
2017-11-24T02:57:34.169Z,67.30
2017-11-24T03:00:02.580Z,67.50
2017-11-24T03:02:30.209Z,67.50
2017-11-24T03:04:58.525Z,67.40
2017-11-24T03:07:26.335Z,67.40
2017-11-24T03:09:53.887Z,67.40
2017-11-24T03:12:21.462Z,67.20
2017-11-24T03:14:48.998Z,67.10
2017-11-24T03:17:16.581Z,66.80
2017-11-24T03:19:44.885Z,67.30
2017-11-24T03:22:12.458Z,66.60
2017-11-24T03:24:39.993Z,67.00
2017-11-24T03:27:08.345Z,66.40
2017-11-24T03:29:35.894Z,66.40
2017-11-24T03:32:03.475Z,66.60
2017-11-24T03:34:31.878Z,67.70
2017-11-24T03:36:59.453Z,66.60
2017-11-24T03:39:26.994Z,66.90
2017-11-24T03:41:54.576Z,67.00
2017-11-24T03:44:22.127Z,66.90
2017-11-24T03:46:49.712Z,66.70
2017-11-24T03:49:17.251Z,66.70
2017-11-24T03:51:44.833Z,66.80
2017-11-24T03:54:12.491Z,66.40
2017-11-24T03:56:40.086Z,66.70
2017-11-24T03:59:07.635Z,66.60
2017-11-24T04:01:35.212Z,66.90
2017-11-24T04:04:02.758Z,66.90
2017-11-24T04:06:30.341Z,68.00
2017-11-24T04:08:58.652Z,67.40
2017-11-24T04:11:26.228Z,67.40
2017-11-24T04:13:53.767Z,67.50
2017-11-24T04:16:21.351Z,67.50
2017-11-24T04:18:48.895Z,67.50
2017-11-24T04:21:16.476Z,67.50
2017-11-24T04:23:44.026Z,67.40
2017-11-24T04:26:11.614Z,67.40
2017-11-24T04:28:39.159Z,67.40
2017-11-24T04:31:06.747Z,67.40
2017-11-24T04:33:34.293Z,67.50
2017-11-24T04:36:01.895Z,67.70
2017-11-24T04:38:29.454Z,67.60
2017-11-24T04:40:57.035Z,67.60
2017-11-24T04:43:24.577Z,67.50
2017-11-24T04:45:52.162Z,67.30
2017-11-24T04:48:19.726Z,67.40
2017-11-24T04:50:47.301Z,67.00
2017-11-24T04:53:14.848Z,66.90
2017-11-24T04:55:42.439Z,67.10
2017-11-24T04:58:11.484Z,67.00
2017-11-24T05:00:39.164Z,67.00
2017-11-24T05:03:06.710Z,66.90
2017-11-24T05:05:34.293Z,66.80
2017-11-24T05:08:01.846Z,66.90
2017-11-24T05:10:29.428Z,66.70
2017-11-24T05:12:56.980Z,66.80
2017-11-24T05:15:24.567Z,66.90
2017-11-24T05:17:52.884Z,66.70
2017-11-24T05:20:20.466Z,66.70
2017-11-24T05:22:48.010Z,66.70
2017-11-24T05:25:15.590Z,66.70
2017-11-24T05:27:43.172Z,66.70
2017-11-24T05:30:10.719Z,66.70
2017-11-24T05:32:38.298Z,66.80
2017-11-24T05:35:05.843Z,66.90
2017-11-24T05:37:33.431Z,67.20
2017-11-24T05:40:01.748Z,67.30
2017-11-24T05:42:29.337Z,67.30
2017-11-24T05:44:56.878Z,67.20
2017-11-24T05:47:24.463Z,67.20
2017-11-24T05:49:52.009Z,67.10
2017-11-24T05:52:19.626Z,67.30
2017-11-24T05:54:47.187Z,67.10
2017-11-24T05:57:14.778Z,67.20
2017-11-24T05:59:42.322Z,67.20
2017-11-24T06:02:09.941Z,67.10
2017-11-24T06:04:38.255Z,67.30
2017-11-24T06:07:06.042Z,67.20
2017-11-24T06:09:33.590Z,67.00
2017-11-24T06:12:01.175Z,66.90
2017-11-24T06:14:28.715Z,66.90
2017-11-24T06:16:56.297Z,67.20
2017-11-24T06:19:23.861Z,67.20
2017-11-24T06:21:51.449Z,67.20
2017-11-24T06:24:19.760Z,67.20
2017-11-24T06:26:47.343Z,67.20
2017-11-24T06:29:14.877Z,67.40
2017-11-24T06:31:42.458Z,67.40
2017-11-24T06:34:10.006Z,67.50
2017-11-24T06:36:37.588Z,67.50
2017-11-24T06:39:05.240Z,67.50
2017-11-24T06:41:32.901Z,67.60
2017-11-24T06:44:00.441Z,67.40
2017-11-24T06:46:28.253Z,67.20
2017-11-24T06:48:55.893Z,67.30
2017-11-24T06:51:23.497Z,67.70
2017-11-24T06:53:51.811Z,67.20
2017-11-24T06:56:19.489Z,67.20
2017-11-24T06:58:47.039Z,67.90
2017-11-24T07:01:14.626Z,67.30
2017-11-24T07:03:42.177Z,67.50
2017-11-24T07:06:09.768Z,67.60
2017-11-24T07:08:37.313Z,67.70
2017-11-24T07:11:04.921Z,67.80
2017-11-24T07:13:32.499Z,68.50
2017-11-24T07:16:00.097Z,67.80
2017-11-24T07:18:27.650Z,68.70
2017-11-24T07:20:55.245Z,68.00
2017-11-24T07:23:23.555Z,67.70
2017-11-24T07:25:51.130Z,67.70
2017-11-24T07:28:18.789Z,67.50
2017-11-24T07:30:46.366Z,67.30
2017-11-24T07:33:13.913Z,67.20
2017-11-24T07:35:41.494Z,66.80
2017-11-24T07:38:09.033Z,66.60
2017-11-24T07:40:36.626Z,66.50
2017-11-24T07:43:04.169Z,66.20
2017-11-24T07:45:31.763Z,66.00
2017-11-24T07:48:00.073Z,65.80
2017-11-24T07:50:27.655Z,65.80
2017-11-24T07:52:55.203Z,65.90
2017-11-24T07:55:22.783Z,66.00
2017-11-24T07:57:50.411Z,65.80
2017-11-24T08:00:18.001Z,65.80
2017-11-24T08:02:45.559Z,65.70
2017-11-24T08:05:13.142Z,65.60
2017-11-24T08:07:40.681Z,65.40
2017-11-24T08:10:08.270Z,65.10
2017-11-24T08:12:35.815Z,64.80
2017-11-24T08:15:03.462Z,64.70
2017-11-24T08:17:31.009Z,64.70
2017-11-24T08:19:58.598Z,64.70
2017-11-24T08:22:26.160Z,64.70
2017-11-24T08:24:53.751Z,65.00
2017-11-24T08:27:22.058Z,64.80
2017-11-24T08:29:49.637Z,64.80
2017-11-24T08:32:17.179Z,65.50
2017-11-24T08:34:44.954Z,65.30
2017-11-24T08:37:12.490Z,65.20
2017-11-24T08:39:40.079Z,65.50
2017-11-24T08:42:07.615Z,65.40
2017-11-24T08:44:35.238Z,65.40
2017-11-24T08:47:22.240Z,65.10
2017-11-24T08:49:49.817Z,65.00
2017-11-24T08:52:18.134Z,64.70
2017-11-24T08:54:45.721Z,64.70
2017-11-24T08:57:13.278Z,64.70
2017-11-24T08:59:40.877Z,64.30
2017-11-24T09:02:09.186Z,63.50
2017-11-24T09:04:36.767Z,63.50
2017-11-24T09:07:04.312Z,63.50
2017-11-24T09:09:31.900Z,63.60
2017-11-24T09:11:59.511Z,63.60
2017-11-24T09:14:27.823Z,63.00
2017-11-24T09:16:55.361Z,62.90
2017-11-24T09:19:22.943Z,62.40
2017-11-24T09:21:50.487Z,61.70
2017-11-24T09:24:18.071Z,61.40
2017-11-24T09:26:45.614Z,60.80
2017-11-24T09:29:13.190Z,60.30
2017-11-24T09:31:40.732Z,59.90
2017-11-24T09:34:08.322Z,59.60
2017-11-24T09:36:35.858Z,59.40
2017-11-24T09:39:03.437Z,59.10
2017-11-24T09:41:31.078Z,58.90
2017-11-24T09:43:58.668Z,58.30
2017-11-24T09:46:26.206Z,58.00
2017-11-24T09:48:53.778Z,58.00
2017-11-24T09:51:21.324Z,57.70
2017-11-24T09:53:48.905Z,57.30
2017-11-24T09:56:16.445Z,56.90
2017-11-24T09:58:44.027Z,55.60
2017-11-24T10:01:11.574Z,55.50
2017-11-24T10:03:39.171Z,55.50
2017-11-24T10:06:07.490Z,55.10
2017-11-24T10:08:35.074Z,55.10
2017-11-24T10:11:02.627Z,55.50
2017-11-24T10:13:30.220Z,56.20
2017-11-24T10:15:57.799Z,56.40
2017-11-24T10:18:25.413Z,56.30
2017-11-24T10:20:58.663Z,56.00
2017-11-24T10:23:26.249Z,54.80
2017-11-24T10:25:53.810Z,54.00
2017-11-24T10:28:21.449Z,53.00
2017-11-24T10:30:49.192Z,54.10
2017-11-24T10:33:17.546Z,56.20
2017-11-24T10:35:45.093Z,56.20
2017-11-24T10:38:12.756Z,55.90
2017-11-24T10:40:40.353Z,55.30
2017-11-24T10:43:08.712Z,55.00
2017-11-24T10:45:36.266Z,54.90
2017-11-24T10:48:03.863Z,54.10
2017-11-24T10:50:31.417Z,54.40
2017-11-24T10:52:59.771Z,53.80
2017-11-24T10:55:28.077Z,54.10
2017-11-24T10:57:56.430Z,54.30
2017-11-24T11:00:25.799Z,54.30
2017-11-24T11:02:53.387Z,54.30
2017-11-24T11:05:20.941Z,54.90
2017-11-24T11:07:48.523Z,55.00
2017-11-24T11:10:16.952Z,55.10
2017-11-24T11:12:44.537Z,55.10
2017-11-24T11:15:12.084Z,54.90
2017-11-24T11:17:39.671Z,55.20
2017-11-24T11:20:07.218Z,55.40
2017-11-24T11:22:34.804Z,55.20
2017-11-24T11:25:03.118Z,55.30
2017-11-24T11:27:30.698Z,55.30
2017-11-24T11:29:58.236Z,55.10
2017-11-24T11:32:25.818Z,54.60
2017-11-24T11:34:53.357Z,54.30
2017-11-24T11:37:20.948Z,53.90
2017-11-24T11:39:48.489Z,53.70
2017-11-24T11:42:16.066Z,53.20
2017-11-24T11:44:43.612Z,52.40
2017-11-24T11:47:11.200Z,52.50
2017-11-24T11:49:38.745Z,53.00
2017-11-24T11:52:06.332Z,52.60
2017-11-24T11:54:33.873Z,52.20
2017-11-24T11:57:01.457Z,52.40
2017-11-24T11:59:29.001Z,52.70
2017-11-24T12:01:56.601Z,52.90
2017-11-24T12:04:24.145Z,53.10
2017-11-24T12:06:52.481Z,53.50
2017-11-24T12:09:20.031Z,53.50
2017-11-24T12:11:47.610Z,53.90
2017-11-24T12:14:15.351Z,54.50
2017-11-24T12:16:43.014Z,55.30
2017-11-24T12:19:10.675Z,55.50
2017-11-24T12:21:38.263Z,55.20
2017-11-24T12:24:05.809Z,54.70
2017-11-24T12:26:35.023Z,55.40
2017-11-24T12:29:02.558Z,55.40
2017-11-24T12:31:30.143Z,56.00
2017-11-24T12:33:57.699Z,56.30
2017-11-24T12:36:26.014Z,55.90
2017-11-24T12:38:54.371Z,55.90
2017-11-24T12:41:22.693Z,55.90
2017-11-24T12:43:50.274Z,55.90
2017-11-24T12:46:17.817Z,56.50
2017-11-24T12:48:45.406Z,56.80
2017-11-24T12:51:13.006Z,57.00
2017-11-24T12:53:41.326Z,57.60
2017-11-24T12:56:08.889Z,57.50
2017-11-24T12:58:36.479Z,57.40
2017-11-24T13:01:04.027Z,58.00
2017-11-24T13:03:31.615Z,57.70
2017-11-24T13:05:59.928Z,57.60
2017-11-24T13:08:27.508Z,57.50
2017-11-24T13:10:55.891Z,58.10
2017-11-24T13:13:23.474Z,58.20
2017-11-24T13:15:51.022Z,49.30
2017-11-24T13:18:18.608Z,49.60
2017-11-24T13:20:46.150Z,51.00
2017-11-24T13:23:13.735Z,52.20
2017-11-24T13:25:42.047Z,54.60
2017-11-24T13:28:09.725Z,54.60
2017-11-24T13:30:37.275Z,54.90
2017-11-24T13:33:04.857Z,55.50
2017-11-24T13:35:32.402Z,55.10
2017-11-24T13:37:59.990Z,55.10
2017-11-24T13:40:27.529Z,55.30
2017-11-24T13:42:55.105Z,55.40
2017-11-24T13:45:22.645Z,56.50
2017-11-24T13:47:50.305Z,57.50
2017-11-24T13:50:17.850Z,58.00
2017-11-24T13:52:45.434Z,58.10
2017-11-24T13:55:12.987Z,58.70
2017-11-24T13:57:40.573Z,58.20
2017-11-24T14:00:08.223Z,58.70
2017-11-24T14:02:35.802Z,57.10
2017-11-24T14:05:03.437Z,52.20
2017-11-24T14:07:31.144Z,49.80
2017-11-24T14:09:59.458Z,47.10
2017-11-24T14:12:27.046Z,47.10
2017-11-24T14:14:54.590Z,46.60
2017-11-24T14:17:22.165Z,46.50
2017-11-24T14:19:49.704Z,46.10
2017-11-24T14:22:18.212Z,46.10
2017-11-24T14:24:45.749Z,46.50
2017-11-24T14:27:13.327Z,46.70
2017-11-24T14:29:40.895Z,46.50
2017-11-24T14:32:08.481Z,46.30
2017-11-24T14:34:36.016Z,46.30
2017-11-24T14:37:03.600Z,47.10
2017-11-24T14:39:31.149Z,46.50
2017-11-24T14:42:00.231Z,46.90
2017-11-24T14:44:27.774Z,46.90
2017-11-24T14:46:55.352Z,47.00
2017-11-24T14:49:22.887Z,47.00
2017-11-24T14:51:50.471Z,47.20
2017-11-24T14:54:18.010Z,47.30
2017-11-24T14:56:45.598Z,47.50
2017-11-24T14:59:13.148Z,47.70
2017-11-24T15:01:40.721Z,47.90
2017-11-24T15:04:08.266Z,48.10
2017-11-24T15:06:35.850Z,48.70
2017-11-24T15:09:04.897Z,48.30
2017-11-24T15:11:32.552Z,48.30
2017-11-24T15:14:00.113Z,48.50
2017-11-24T15:16:27.698Z,48.60
2017-11-24T15:18:55.233Z,48.90
2017-11-24T15:21:22.810Z,49.00
2017-11-24T15:23:50.350Z,49.10
2017-11-24T15:26:17.925Z,49.40
2017-11-24T15:28:45.465Z,49.50
2017-11-24T15:31:13.045Z,49.50
2017-11-24T15:33:40.579Z,49.60
2017-11-24T15:36:08.179Z,49.80
2017-11-24T15:38:35.717Z,49.90
2017-11-24T15:41:03.310Z,50.10
2017-11-24T15:43:30.860Z,50.10
2017-11-24T15:45:58.438Z,50.10
2017-11-24T15:48:25.978Z,50.00
2017-11-24T15:50:53.562Z,50.30
2017-11-24T15:53:21.871Z,50.20
2017-11-24T15:55:50.218Z,50.40
2017-11-24T15:58:18.534Z,50.50
2017-11-24T16:00:46.110Z,50.50
2017-11-24T16:03:13.645Z,50.60
2017-11-24T16:05:41.997Z,50.70
2017-11-24T16:08:09.541Z,50.80
2017-11-24T16:10:37.178Z,50.90
2017-11-24T16:13:04.713Z,50.70
2017-11-24T16:15:32.292Z,50.80
2017-11-24T16:17:59.825Z,50.80
2017-11-24T16:20:28.174Z,50.70
2017-11-24T16:22:56.509Z,50.70
2017-11-24T16:25:24.092Z,50.60
2017-11-24T16:27:51.626Z,50.70
2017-11-24T16:30:19.210Z,50.80
2017-11-24T16:32:46.746Z,50.70
2017-11-24T16:35:14.321Z,50.70
2017-11-24T16:37:41.862Z,50.60
2017-11-24T16:40:09.441Z,50.70
2017-11-24T16:42:36.994Z,50.60
2017-11-24T16:45:04.570Z,50.70
2017-11-24T16:47:32.107Z,50.80
2017-11-24T16:49:59.678Z,50.80
2017-11-24T16:52:27.218Z,50.80
2017-11-24T16:54:54.794Z,50.80
2017-11-24T16:57:22.334Z,50.80
2017-11-24T16:59:49.921Z,51.00
2017-11-24T17:02:17.576Z,50.90
2017-11-24T17:04:45.149Z,51.00
2017-11-24T17:07:12.697Z,51.00
2017-11-24T17:09:40.270Z,51.10
2017-11-24T17:12:07.812Z,51.20
2017-11-24T17:14:35.391Z,51.20
2017-11-24T17:17:02.929Z,51.30
2017-11-24T17:19:30.597Z,51.40
2017-11-24T17:21:58.152Z,51.50
2017-11-24T17:24:25.727Z,51.50
2017-11-24T17:26:53.276Z,51.60
2017-11-24T17:29:20.854Z,51.70
2017-11-24T17:31:48.391Z,51.80
2017-11-24T17:34:15.977Z,52.00
2017-11-24T17:36:43.556Z,52.00
2017-11-24T17:39:11.865Z,52.20
2017-11-24T17:41:40.214Z,52.30
2017-11-24T17:44:07.751Z,52.30
2017-11-24T17:46:35.334Z,52.30
2017-11-24T17:49:03.672Z,52.40
2017-11-24T17:51:31.251Z,52.40
2017-11-24T17:53:58.809Z,52.50
2017-11-24T17:56:26.386Z,52.50
2017-11-24T17:58:55.450Z,52.60
2017-11-24T18:01:23.034Z,52.50
2017-11-24T18:03:50.670Z,52.70
2017-11-24T18:06:18.256Z,52.80
2017-11-24T18:08:45.815Z,53.00
2017-11-24T18:11:13.394Z,53.10
2017-11-24T18:13:42.446Z,53.10
2017-11-24T18:16:10.032Z,53.10
2017-11-24T18:18:37.588Z,53.20
2017-11-24T18:21:05.173Z,53.30
2017-11-24T18:23:32.718Z,53.30
2017-11-24T18:26:01.803Z,53.50
2017-11-24T18:28:29.354Z,53.40
2017-11-24T18:30:57.004Z,53.50
2017-11-24T18:33:24.553Z,53.50
2017-11-24T18:35:52.142Z,53.60
2017-11-24T18:38:19.692Z,53.80
2017-11-24T18:40:47.288Z,53.90
2017-11-24T18:43:14.833Z,53.90
2017-11-24T18:45:43.930Z,53.90
2017-11-24T18:48:11.477Z,54.00
2017-11-24T18:50:39.018Z,54.00
2017-11-24T18:53:06.602Z,54.10
2017-11-24T18:55:34.154Z,54.20
2017-11-24T18:58:01.734Z,54.20
2017-11-24T19:00:29.418Z,54.40
2017-11-24T19:02:57.766Z,54.40
2017-11-24T19:05:25.304Z,54.30
2017-11-24T19:07:52.889Z,54.50
2017-11-24T19:10:20.428Z,54.50
2017-11-24T19:12:48.010Z,54.60
2017-11-24T19:15:15.568Z,54.70
2017-11-24T19:17:43.157Z,54.70
2017-11-24T19:20:11.476Z,54.80
2017-11-24T19:22:39.066Z,54.70
2017-11-24T19:25:06.615Z,54.90
2017-11-24T19:27:35.719Z,54.90
2017-11-24T19:30:03.264Z,54.90
2017-11-24T19:32:30.850Z,54.90
2017-11-24T19:34:58.398Z,55.10
2017-11-24T19:37:25.995Z,55.10
2017-11-24T19:39:54.311Z,55.30
2017-11-24T19:42:21.895Z,55.20
2017-11-24T19:44:50.963Z,55.40
2017-11-24T19:47:18.542Z,55.40
2017-11-24T19:49:46.082Z,55.50
2017-11-24T19:52:13.667Z,55.60
2017-11-24T19:54:41.210Z,55.60
2017-11-24T19:57:08.795Z,55.60
2017-11-24T19:59:36.350Z,55.60
2017-11-24T20:02:03.939Z,55.70
2017-11-24T20:04:32.252Z,56.00
2017-11-24T20:06:59.842Z,55.80
2017-11-24T20:09:27.398Z,55.90
2017-11-24T20:11:54.978Z,56.00
2017-11-24T20:14:22.521Z,56.10
2017-11-24T20:16:50.115Z,56.20
2017-11-24T20:19:17.665Z,56.30
2017-11-24T20:21:46.016Z,56.50
2017-11-24T20:24:13.564Z,56.50
2017-11-24T20:26:41.149Z,56.50
2017-11-24T20:29:08.820Z,56.60
2017-11-24T20:31:37.178Z,56.70
2017-11-24T20:34:04.719Z,56.80
2017-11-24T20:36:32.307Z,56.80
2017-11-24T20:38:59.904Z,56.90
2017-11-24T20:41:28.252Z,57.00
2017-11-24T20:43:55.849Z,57.00
2017-11-24T20:46:24.210Z,57.20
2017-11-24T20:48:51.806Z,57.20
2017-11-24T20:51:19.428Z,58.00
2017-11-24T20:53:46.979Z,57.30
2017-11-24T20:56:14.575Z,57.50
2017-11-24T20:58:42.912Z,57.60
2017-11-24T21:01:10.557Z,57.60
2017-11-24T21:03:38.102Z,57.60
2017-11-24T21:06:05.684Z,57.70
2017-11-24T21:08:33.230Z,57.70
2017-11-24T21:11:00.819Z,57.80
2017-11-24T21:13:29.129Z,57.70
2017-11-24T21:15:57.519Z,57.70
2017-11-24T21:18:25.069Z,57.60
2017-11-24T21:20:53.476Z,57.70
2017-11-24T21:23:21.024Z,57.60
2017-11-24T21:25:48.609Z,57.70
2017-11-24T21:28:16.165Z,57.80
2017-11-24T21:30:43.719Z,57.80
2017-11-24T21:33:11.355Z,57.80
2017-11-24T21:35:39.772Z,57.90
2017-11-24T21:38:07.359Z,57.90
2017-11-24T21:40:35.717Z,57.90
2017-11-24T21:43:03.367Z,58.00
2017-11-24T21:45:30.927Z,58.00
2017-11-24T21:47:58.589Z,58.10
2017-11-24T21:50:26.180Z,58.10
2017-11-24T21:52:53.808Z,58.10
2017-11-24T21:55:21.404Z,58.20
2017-11-24T21:57:49.065Z,58.20
2017-11-24T22:00:16.702Z,58.20
2017-11-24T22:02:44.289Z,58.30
2017-11-24T22:05:11.840Z,58.40
2017-11-24T22:07:39.479Z,58.40
2017-11-24T22:10:07.039Z,58.40
2017-11-24T22:12:34.635Z,58.40
2017-11-24T22:15:02.177Z,58.40
2017-11-24T22:17:29.763Z,58.60
2017-11-24T22:19:57.320Z,58.60
2017-11-24T22:22:24.903Z,58.60
2017-11-24T22:24:52.501Z,58.70
2017-11-24T22:27:20.085Z,58.70
2017-11-24T22:29:47.685Z,58.80
2017-11-24T22:32:16.035Z,58.90
2017-11-24T22:34:43.661Z,58.90
2017-11-24T22:37:11.244Z,58.90
2017-11-24T22:39:38.794Z,58.90
2017-11-24T22:42:06.393Z,59.00
2017-11-24T22:44:34.748Z,59.10
2017-11-24T22:47:02.342Z,59.00
2017-11-24T22:49:30.694Z,59.10
2017-11-24T22:51:58.278Z,59.10
2017-11-24T22:54:26.622Z,59.20
2017-11-24T22:56:54.213Z,59.10
2017-11-24T22:59:22.520Z,59.20
2017-11-24T23:01:50.200Z,59.10
2017-11-24T23:04:17.751Z,59.10
2017-11-24T23:06:45.343Z,59.20
2017-11-24T23:09:12.895Z,59.30
2017-11-24T23:11:40.484Z,59.30
2017-11-24T23:14:08.034Z,59.30
2017-11-24T23:16:35.622Z,60.10
2017-11-24T23:19:03.934Z,59.40
2017-11-24T23:21:31.514Z,59.30
2017-11-24T23:23:59.053Z,59.40
2017-11-24T23:26:26.640Z,59.40
2017-11-24T23:28:54.184Z,59.50
2017-11-24T23:31:21.767Z,59.50
2017-11-24T23:33:49.323Z,59.60
2017-11-24T23:36:16.961Z,59.60
2017-11-24T23:38:44.506Z,59.60
2017-11-24T23:41:12.084Z,59.60
2017-11-24T23:43:39.634Z,59.70
2017-11-24T23:46:07.220Z,59.70
2017-11-24T23:48:34.765Z,59.80
2017-11-24T23:51:02.349Z,59.80
2017-11-24T23:53:29.915Z,59.80
2017-11-24T23:55:57.498Z,59.80
2017-11-24T23:58:26.297Z,60.10
